createdAt,value
2019-06-10T00:03:07.229Z,2.20
2019-06-10T00:07:57.989Z,2.50
2019-06-10T00:12:48.419Z,2.07
2019-06-10T00:17:53.090Z,2.40
2019-06-10T00:22:31.505Z,2.00
2019-06-10T00:27:21.580Z,2.37
2019-06-10T00:32:13.443Z,2.72
2019-06-10T00:37:06.348Z,2.00
2019-06-10T00:41:54.844Z,4.50
2019-06-10T00:46:45.743Z,2.37
2019-06-10T00:51:36.689Z,2.10
2019-06-10T00:56:27.581Z,2.80
2019-06-10T01:01:18.522Z,2.50
2019-06-10T01:06:12.014Z,2.37
2019-06-10T01:11:05.680Z,2.47
2019-06-10T01:15:51.411Z,2.53
2019-06-10T01:20:42.297Z,3.60
2019-06-10T01:25:33.218Z,2.50
2019-06-10T01:30:27.160Z,2.73
2019-06-10T01:35:15.867Z,2.80
2019-06-10T01:40:06.082Z,4.17
2019-06-10T01:44:56.862Z,2.47
2019-06-10T01:49:47.749Z,2.63
2019-06-10T01:54:39.377Z,5.40
2019-06-10T01:59:31.124Z,2.37
2019-06-10T02:04:22.278Z,2.50
2019-06-10T02:09:15.037Z,2.50
2019-06-10T02:14:04.697Z,3.10
2019-06-10T02:19:00.398Z,2.83
2019-06-10T02:23:47.317Z,2.77
2019-06-10T02:28:40.585Z,2.70
2019-06-10T02:33:32.338Z,3.20
2019-06-10T02:38:30.609Z,3.00
2019-06-10T02:43:15.470Z,2.80
2019-06-10T02:48:04.172Z,3.40
2019-06-10T02:52:53.165Z,2.90
2019-06-10T02:57:44.876Z,3.07
2019-06-10T03:02:36.610Z,3.30
2019-06-10T03:07:29.293Z,4.80
2019-06-10T03:12:17.642Z,2.83
2019-06-10T03:17:09.835Z,2.60
2019-06-10T03:22:02.743Z,3.20
2019-06-10T03:26:52.241Z,3.57
2019-06-10T03:31:48.130Z,3.25
2019-06-10T03:36:34.377Z,2.30
2019-06-10T03:41:26.808Z,2.40
2019-06-10T03:46:17.247Z,3.00
2019-06-10T03:51:07.333Z,3.13
2019-06-10T03:55:58.220Z,3.00
2019-06-10T04:00:49.165Z,2.60
2019-06-10T04:05:42.151Z,2.50
2019-06-10T04:10:32.482Z,2.70
2019-06-10T04:15:24.810Z,2.50
2019-06-10T04:20:15.435Z,3.50
2019-06-10T04:25:03.748Z,2.87
2019-06-10T04:29:54.649Z,2.50
2019-06-10T04:34:45.596Z,2.80
2019-06-10T04:39:36.492Z,2.73
2019-06-10T04:44:28.125Z,4.10
2019-06-10T04:49:18.727Z,3.60
2019-06-10T04:54:09.480Z,3.00
2019-06-10T04:59:02.927Z,2.87
2019-06-10T05:03:52.658Z,3.30
2019-06-10T05:08:42.755Z,4.20
2019-06-10T05:13:33.792Z,3.10
2019-06-10T05:18:25.918Z,3.23
2019-06-10T05:23:15.917Z,7.27
2019-06-10T05:28:06.819Z,3.17
2019-06-10T05:32:57.745Z,2.93
2019-06-10T05:37:48.673Z,3.50
2019-06-10T05:42:39.560Z,3.30
2019-06-10T05:47:31.536Z,3.30
2019-06-10T05:52:23.407Z,4.93
2019-06-10T05:57:12.329Z,2.63
2019-06-10T06:02:03.217Z,3.00
2019-06-10T06:06:54.108Z,3.30
2019-06-10T06:11:44.988Z,2.80
2019-06-10T06:16:36.286Z,3.20
2019-06-10T06:21:32.460Z,3.47
2019-06-10T06:26:17.748Z,2.80
2019-06-10T06:31:08.637Z,3.50
2019-06-10T06:35:59.529Z,3.80
2019-06-10T06:40:53.728Z,3.20
2019-06-10T06:45:42.811Z,3.10
2019-06-10T06:50:34.638Z,3.35
2019-06-10T06:55:23.953Z,2.90
2019-06-10T07:00:38.676Z,3.27
2019-06-10T07:05:06.245Z,3.93
2019-06-10T07:09:57.146Z,4.73
2019-06-10T07:14:48.049Z,3.40
2019-06-10T07:19:39.959Z,5.03
2019-06-10T07:24:29.849Z,3.80
2019-06-10T07:29:22.600Z,3.20
2019-06-10T07:34:13.067Z,3.57
2019-06-10T07:39:03.665Z,3.03
2019-06-10T07:43:54.427Z,3.40
2019-06-10T07:48:48.113Z,3.00
2019-06-10T07:53:36.966Z,3.70
2019-06-10T07:58:28.728Z,3.50
2019-06-10T08:03:22.449Z,2.80
2019-06-10T08:08:13.026Z,2.97
2019-06-10T08:13:03.028Z,3.43
2019-06-10T08:17:53.898Z,4.17
2019-06-10T08:22:54.092Z,2.93
2019-06-10T08:27:36.585Z,2.90
2019-06-10T08:32:26.642Z,2.83
2019-06-10T08:37:17.525Z,3.10
2019-06-10T08:42:08.413Z,3.30
2019-06-10T08:46:59.297Z,2.90
2019-06-10T08:51:51.011Z,3.13
2019-06-10T08:56:45.138Z,3.78
2019-06-10T09:01:33.387Z,3.20
2019-06-10T09:06:23.726Z,4.03
2019-06-10T09:11:14.622Z,3.40
2019-06-10T09:16:15.590Z,3.30
2019-06-10T09:20:56.460Z,3.47
2019-06-10T09:25:50.453Z,3.87
2019-06-10T09:30:40.465Z,3.50
2019-06-10T09:35:29.254Z,3.40
2019-06-10T09:40:22.939Z,5.13
2019-06-10T09:45:12.952Z,3.20
2019-06-10T09:50:03.298Z,3.60
2019-06-10T09:54:56.775Z,4.30
2019-06-10T09:59:49.692Z,4.57
2019-06-10T10:04:37.464Z,3.63
2019-06-10T10:09:27.945Z,3.30
2019-06-10T10:14:18.837Z,3.73
2019-06-10T10:19:12.905Z,4.30
2019-06-10T10:24:09.879Z,4.43
2019-06-10T10:28:56.962Z,3.80
2019-06-10T10:33:44.729Z,5.33
2019-06-10T10:38:35.621Z,3.53
2019-06-10T10:43:33.255Z,6.47
2019-06-10T10:48:17.489Z,4.20
2019-06-10T10:53:08.389Z,5.00
2019-06-10T10:57:59.282Z,4.30
2019-06-10T11:02:51.461Z,4.17
2019-06-10T11:07:42.270Z,3.83
2019-06-10T11:12:33.167Z,3.70
2019-06-10T11:17:23.788Z,4.82
2019-06-10T11:22:14.764Z,4.80
2019-06-10T11:27:07.197Z,4.57
2019-06-10T11:31:58.808Z,3.33
2019-06-10T11:36:49.972Z,5.23
2019-06-10T11:41:39.961Z,4.20
2019-06-10T11:46:32.583Z,3.70
2019-06-10T11:51:23.503Z,3.60
2019-06-10T11:56:13.196Z,4.13
2019-06-10T12:01:04.243Z,4.20
2019-06-10T12:05:58.845Z,4.57
2019-06-10T12:10:45.781Z,4.83
2019-06-10T12:16:19.829Z,4.10
2019-06-10T12:20:28.567Z,4.43
2019-06-10T12:25:30.931Z,4.00
2019-06-10T12:30:09.537Z,4.72
2019-06-10T12:35:05.071Z,5.00
2019-06-10T12:39:54.393Z,4.20
2019-06-10T12:44:42.939Z,4.10
2019-06-10T12:49:33.221Z,4.50
2019-06-10T12:54:24.142Z,4.43
2019-06-10T12:59:15.062Z,3.87
2019-06-10T13:04:08.028Z,5.30
2019-06-10T13:08:58.065Z,3.47
2019-06-10T13:13:47.811Z,4.07
2019-06-10T13:18:38.711Z,4.50
2019-06-10T13:23:32.622Z,3.97
2019-06-10T13:28:22.274Z,3.53
2019-06-10T13:33:14.419Z,3.77
2019-06-10T13:38:04.144Z,4.27
2019-06-10T13:42:54.136Z,3.50
2019-06-10T13:47:45.053Z,4.10
2019-06-10T13:52:35.939Z,4.40
2019-06-10T13:57:26.998Z,3.87
2019-06-10T14:02:17.813Z,4.53
2019-06-10T14:07:12.143Z,4.20
2019-06-10T14:11:59.630Z,3.90
2019-06-10T14:16:52.523Z,4.40
2019-06-10T14:21:42.557Z,5.00
2019-06-10T14:26:40.790Z,4.50
2019-06-10T14:31:39.524Z,4.40
2019-06-10T14:36:16.616Z,4.67
2019-06-10T14:41:06.509Z,4.73
2019-06-10T14:45:57.569Z,4.53
2019-06-10T14:50:49.262Z,5.10
2019-06-10T14:55:43.044Z,5.43
2019-06-10T15:00:33.348Z,4.63
2019-06-10T15:05:23.277Z,5.20
2019-06-10T15:10:16.041Z,5.67
2019-06-10T15:15:04.775Z,6.00
2019-06-10T15:19:55.665Z,6.70
2019-06-10T15:24:46.619Z,6.50
2019-06-10T15:29:37.525Z,6.90
2019-06-10T15:34:28.417Z,6.62
2019-06-10T15:39:21.498Z,6.17
2019-06-10T15:44:10.274Z,7.30
2019-06-10T15:49:02.366Z,6.60
2019-06-10T15:53:52.856Z,9.20
2019-06-10T15:58:44.570Z,7.40
2019-06-10T16:03:35.461Z,7.50
2019-06-10T16:08:26.410Z,7.10
2019-06-10T16:13:18.527Z,6.80
2019-06-10T16:18:08.249Z,7.70
2019-06-10T16:22:59.141Z,7.83
2019-06-10T16:27:51.696Z,6.67
2019-06-10T16:32:41.001Z,8.53
2019-06-10T16:37:32.797Z,7.00
2019-06-10T16:42:25.684Z,7.57
2019-06-10T16:47:13.725Z,7.83
2019-06-10T16:52:04.627Z,8.90
2019-06-10T16:56:56.264Z,8.03
2019-06-10T17:01:47.948Z,6.97
2019-06-10T17:06:38.847Z,7.60
2019-06-10T17:11:30.522Z,7.32
2019-06-10T17:16:22.860Z,7.23
2019-06-10T17:21:13.257Z,10.80
2019-06-10T17:26:02.554Z,8.02
2019-06-10T17:30:53.447Z,9.50
2019-06-10T17:35:44.343Z,8.00
2019-06-10T17:40:35.232Z,8.40
2019-06-10T17:45:28.839Z,7.80
2019-06-10T17:50:17.788Z,8.00
2019-06-10T17:55:09.485Z,7.90
2019-06-10T18:00:00.381Z,7.70
2019-06-10T18:04:52.626Z,8.13
2019-06-10T18:09:42.322Z,7.47
2019-06-10T18:14:34.902Z,7.43
2019-06-10T18:19:24.308Z,9.23
2019-06-10T18:24:15.085Z,8.80
2019-06-10T18:29:09.044Z,8.00
2019-06-10T18:33:56.937Z,8.33
2019-06-10T18:38:47.825Z,7.70
2019-06-10T18:43:39.910Z,11.33
2019-06-10T18:48:31.788Z,8.57
2019-06-10T18:53:23.309Z,7.93
2019-06-10T18:58:11.629Z,9.05
2019-06-10T19:03:10.272Z,8.70
2019-06-10T19:07:53.484Z,10.20
2019-06-10T19:12:44.366Z,8.23
2019-06-10T19:17:38.722Z,7.83
2019-06-10T19:22:26.973Z,9.50
2019-06-10T19:27:17.966Z,9.30
2019-06-10T19:32:08.869Z,8.55
2019-06-10T19:36:59.804Z,9.17
2019-06-10T19:41:52.849Z,9.00
2019-06-10T19:46:42.977Z,8.90
2019-06-10T19:51:32.993Z,8.47
2019-06-10T19:56:26.404Z,8.90
2019-06-10T20:01:14.388Z,9.40
2019-06-10T20:06:05.277Z,8.87
2019-06-10T20:10:56.184Z,8.90
2019-06-10T20:15:48.331Z,8.80
2019-06-10T20:20:38.311Z,8.70
2019-06-10T20:25:29.816Z,8.80
2019-06-10T20:30:27.974Z,8.37
2019-06-10T20:35:12.447Z,8.50
2019-06-10T20:40:04.137Z,8.27
2019-06-10T20:44:55.838Z,8.40
2019-06-10T20:49:50.812Z,9.57
2019-06-10T20:54:38.259Z,9.17
2019-06-10T20:59:28.695Z,8.43
2019-06-10T21:04:19.581Z,9.50
2019-06-10T21:09:13.144Z,8.87
2019-06-10T21:14:03.170Z,7.87
2019-06-10T21:18:55.523Z,8.70
2019-06-10T21:23:44.974Z,10.63
2019-06-10T21:28:34.416Z,9.47
2019-06-10T21:33:25.360Z,10.07
2019-06-10T21:38:16.257Z,9.70
2019-06-10T21:43:07.169Z,8.70
2019-06-10T21:47:58.091Z,9.23
2019-06-10T21:52:49.001Z,9.43
2019-06-10T21:57:39.899Z,9.87
2019-06-10T22:02:32.364Z,9.80
2019-06-10T22:07:22.495Z,9.63
2019-06-10T22:12:12.625Z,11.93
2019-06-10T22:17:04.252Z,9.80
2019-06-10T22:21:56.738Z,10.57
2019-06-10T22:26:46.976Z,9.90
2019-06-10T22:31:37.931Z,10.17
2019-06-10T22:36:28.842Z,10.57
2019-06-10T22:41:22.581Z,10.70
2019-06-10T22:46:11.468Z,10.57
2019-06-10T22:51:02.353Z,10.20
2019-06-10T22:55:55.910Z,9.90
2019-06-10T23:00:44.965Z,11.00
2019-06-10T23:05:35.865Z,11.23
2019-06-10T23:10:26.768Z,10.80
2019-06-10T23:15:17.673Z,10.70
2019-06-10T23:20:08.633Z,10.37
2019-06-10T23:25:00.511Z,10.60
2019-06-10T23:29:53.996Z,12.90
2019-06-10T23:34:42.408Z,11.03
2019-06-10T23:39:33.933Z,11.70
2019-06-10T23:44:24.841Z,11.18
2019-06-10T23:49:15.758Z,10.53
2019-06-10T23:54:06.655Z,11.10
2019-06-10T23:58:58.625Z,12.93
